Kaley — V7LL2 — position and weather

sailwx.info

Track history (hours):
 
Tides and Currents Weather Stations Pressure Air Temp Water Temp Dewpoint Dewpoint Depression Visibility Wind Speed Wind Dir Waves Ship Positions

Kaley

Last reported at 2017-Sep-04 08:15 UTC. Time now 2017-Sep-22 17:20 UTC.
Position N 47°36' W 131°16'.
Warning: this ship's position is 18 days out of date.

Length 199 m; draft 13.7 m.

Type: Cargo ship. MMSI: 538006289.

Date/timePositionNaut miles runAvg speedWind from/ knotsBaromVisibWave heightAir tempDewpointWater temp
2017-Sep-04 08:15N 47°36' W 131°16'3 8.7
2017-Sep-04 07:55N 47°37' W 131°11'4 8.6
2017-Sep-04 07:30N 47°38' W 131°06'4 8.6
2017-Sep-04 07:00N 47°38' W 131°00'4 8.6
2017-Sep-04 06:30N 47°39' W 130°54'4 8.7
2017-Sep-04 06:01N 47°40' W 130°48'4 8.9
2017-Sep-04 05:30N 47°41' W 130°41'4 8.9
2017-Sep-04 05:00N 47°42' W 130°35'4 8.7
2017-Sep-04 04:30N 47°43' W 130°28'4 8.6
2017-Sep-04 04:00N 47°44' W 130°22'5 8.5
2017-Sep-04 03:24N 47°45' W 130°15'4 8.5
2017-Sep-04 03:00N 47°46' W 130°10'6 8.7
2017-Sep-04 02:15N 47°47' W 130°00'2 8.7
2017-Sep-04 02:00N 47°48' W 129°57'4 8.6
2017-Sep-04 01:29N 47°49' W 129°51'4 8.6
2017-Sep-04 01:01N 47°50' W 129°45'4 8.5
2017-Sep-04 00:31N 47°51' W 129°39'4 8.5
2017-Sep-03 23:59N 47°52' W 129°32'4 8.5
2017-Sep-03 23:31N 47°52' W 129°26'4 8.6
2017-Sep-03 23:00N 47°53' W 129°20'4 8.4
2017-Sep-03 22:30N 47°54' W 129°14'4 8.3
2017-Sep-03 22:01N 47°55' W 129°08'4 8.2
2017-Sep-03 21:30N 47°56' W 129°02'4 8.4
2017-Sep-03 21:00N 47°57' W 128°56'4 8.5
2017-Sep-03 20:30N 47°58' W 128°49'4 8.6
2017-Sep-03 20:00N 47°59' W 128°43'4 8.5
2017-Sep-03 19:31N 47°60' W 128°37'4 8.6
2017-Sep-03 19:00N 48°01' W 128°31'4 8.4
2017-Sep-03 18:30N 48°02' W 128°25'4 8.5
2017-Sep-03 18:00N 48°02' W 128°18'5 8.3
2017-Sep-03 17:27N 48°04' W 128°12'4 8.4
2017-Sep-03 17:00N 48°04' W 128°06'7 8.4
2017-Sep-03 16:09N 48°06' W 127°56'1 8.4
2017-Sep-03 16:00N 48°06' W 127°54'4 8.5
2017-Sep-03 15:30N 48°07' W 127°48'4 8.3
2017-Sep-03 15:00N 48°08' W 127°42'75 8.3
2017-Sep-03 06:00N 48°24' W 125°52'4 8.2
2017-Sep-03 05:29N 48°25' W 125°46'4 8.1
2017-Sep-03 05:00N 48°26' W 125°40'4 8.4
2017-Sep-03 04:30N 48°27' W 125°34'4 8.0
2017-Sep-03 03:58N 48°28' W 125°28'7 8.4
2017-Sep-03 03:10N 48°29' W 125°18'2 8.6
2017-Sep-03 02:57N 48°30' W 125°15'5 8.8
2017-Sep-03 02:25N 48°31' W 125°08'4 8.9
2017-Sep-03 02:00N 48°31' W 125°03'5 9.1
2017-Sep-03 01:30N 48°31' W 124°56'4 9.0
2017-Sep-03 01:00N 48°31' W 124°49'5 9.7
2017-Sep-03 00:30N 48°30' W 124°42'510.1
2017-Sep-03 00:01N 48°28' W 124°35'5 9.7
2017-Sep-02 23:30N 48°26' W 124°28'5 9.5
2017-Sep-02 23:00N 48°25' W 124°21'5 9.2
2017-Sep-02 22:31N 48°23' W 124°15'5 9.1
2017-Sep-02 22:00N 48°21' W 124°09'5 9.2
2017-Sep-02 21:30N 48°19' W 124°02'5 9.0
2017-Sep-02 21:00N 48°18' W 123°56'4 9.1
2017-Sep-02 20:30N 48°17' W 123°49'4 8.7
2017-Sep-02 20:00N 48°17' W 123°43'4 8.7
2017-Sep-02 19:30N 48°16' W 123°36'4 7.7
2017-Sep-02 19:00N 48°16' W 123°30'4 8.0
2017-Sep-02 18:30N 48°19' W 123°27'4 8.8
2017-Sep-02 18:00N 48°23' W 123°23'4 8.7
2017-Sep-02 17:30N 48°23' W 123°17'4 8.2
2017-Sep-02 17:00N 48°26' W 123°12'510.7
2017-Sep-02 16:30N 48°31' W 123°13'612.2
2017-Sep-02 16:01N 48°37' W 123°14'611.6
2017-Sep-02 15:30N 48°43' W 123°13'713.4
2017-Sep-02 14:59N 48°46' W 123°03'5 9.5
2017-Sep-02 14:30N 48°51' W 123°03'713.2
2017-Sep-02 14:00N 48°55' W 123°10'713.5
2017-Sep-02 13:30N 48°60' W 123°18'612.3
2017-Sep-02 13:00N 49°05' W 123°23'612.6
2017-Sep-02 12:30N 49°11' W 123°22'612.5
2017-Sep-02 12:00N 49°17' W 123°19'510.8
2017-Sep-02 11:30N 49°19' W 123°11'3 5.6
2017-Sep-02 11:00N 49°19' W 123°07'0 0.0
2017-Sep-02 10:30N 49°19' W 123°07'0 0.0
2017-Sep-02 10:00N 49°19' W 123°07'0 0.0
2017-Sep-02 09:30N 49°19' W 123°07'0 0.0
2017-Sep-02 09:00N 49°19' W 123°07'0 0.0
2017-Sep-02 08:30N 49°19' W 123°07'0 0.0
2017-Sep-02 08:00N 49°19' W 123°07'0 0.0
2017-Sep-02 07:30N 49°19' W 123°07'0 0.0
2017-Sep-02 07:00N 49°19' W 123°07'0 0.0
2017-Sep-02 06:30N 49°19' W 123°07'0 0.0
2017-Sep-02 06:00N 49°19' W 123°07'0 0.0
2017-Sep-02 05:30N 49°19' W 123°07'0 0.0
2017-Sep-02 05:00N 49°19' W 123°07'0 0.0
2017-Sep-02 04:30N 49°19' W 123°07'0 0.0
2017-Sep-02 04:00N 49°19' W 123°07'0 0.0
2017-Sep-02 03:30N 49°19' W 123°07'0 0.0
2017-Sep-02 03:00N 49°19' W 123°07'0 0.0
2017-Sep-02 02:30N 49°19' W 123°07'0 0.0
2017-Sep-02 02:00N 49°19' W 123°07'0 0.0
2017-Sep-02 01:30N 49°19' W 123°07'0 0.0
2017-Sep-02 01:00N 49°19' W 123°07'0 0.0
2017-Sep-02 00:30N 49°19' W 123°07'0 0.0
2017-Sep-02 00:00N 49°19' W 123°07'0 0.0
2017-Sep-01 23:30N 49°19' W 123°07'0 0.0
2017-Sep-01 23:00N 49°19' W 123°07'0 0.0
2017-Sep-01 22:30N 49°19' W 123°07'0 0.0
2017-Sep-01 22:00N 49°19' W 123°07'0 0.0
2017-Sep-01 21:30N 49°19' W 123°07'0 0.0
2017-Sep-01 21:00N 49°19' W 123°07'0 0.0
2017-Sep-01 20:30N 49°19' W 123°07'0 0.0
2017-Sep-01 20:00N 49°19' W 123°07'0 0.0
2017-Sep-01 19:30N 49°19' W 123°07'0 0.0
2017-Sep-01 19:00N 49°19' W 123°07'0 0.0
2017-Sep-01 18:30N 49°19' W 123°07'0 0.0
2017-Sep-01 18:00N 49°19' W 123°07'0 0.0
2017-Sep-01 17:30N 49°19' W 123°07'0 0.0
2017-Sep-01 17:00N 49°19' W 123°07'0 0.0
2017-Sep-01 16:30N 49°19' W 123°07'0 0.0
2017-Sep-01 16:00N 49°19' W 123°07'0 0.0
2017-Sep-01 15:30N 49°19' W 123°07'0 0.0
2017-Sep-01 15:00N 49°19' W 123°07'0 0.0
2017-Sep-01 14:30N 49°19' W 123°07'0 0.0
2017-Sep-01 14:00N 49°19' W 123°07'0 0.0
2017-Sep-01 13:30N 49°19' W 123°07'0 0.0
2017-Sep-01 13:00N 49°19' W 123°07'0 0.0
2017-Sep-01 12:30N 49°19' W 123°07'0 0.0
2017-Sep-01 12:00N 49°19' W 123°07'0 0.0
2017-Sep-01 11:30N 49°19' W 123°07'0 0.0
2017-Sep-01 11:00N 49°19' W 123°07'0 0.0
2017-Sep-01 10:30N 49°19' W 123°07'0 0.0
2017-Sep-01 10:00N 49°19' W 123°07'0 0.0
2017-Sep-01 09:30N 49°19' W 123°07'0 0.0
2017-Sep-01 09:00N 49°19' W 123°07'0 0.0
2017-Sep-01 08:30N 49°19' W 123°07'0 0.0
2017-Sep-01 08:00N 49°19' W 123°07'0 0.0
2017-Sep-01 07:30N 49°19' W 123°07'0 0.0
2017-Sep-01 07:00N 49°19' W 123°07'0 0.0
2017-Sep-01 06:30N 49°19' W 123°07'0 0.0
2017-Sep-01 06:00N 49°19' W 123°07'0 0.0
2017-Sep-01 05:30N 49°19' W 123°07'0 0.0
2017-Sep-01 05:00N 49°19' W 123°07'0 0.0
2017-Sep-01 04:30N 49°19' W 123°07'0 0.0
2017-Sep-01 04:00N 49°19' W 123°07'0 0.0
2017-Sep-01 03:30N 49°19' W 123°07'0 0.0
2017-Sep-01 03:00N 49°19' W 123°07'0 0.0
2017-Sep-01 02:30N 49°19' W 123°07'0 0.0
2017-Sep-01 02:00N 49°19' W 123°07'0 0.0
2017-Sep-01 01:30N 49°19' W 123°07'0 0.0
2017-Sep-01 01:00N 49°19' W 123°07'0 0.0
2017-Sep-01 00:30N 49°19' W 123°07'0 0.0
2017-Sep-01 00:00N 49°19' W 123°07'0 0.0
2017-Aug-31 23:30N 49°19' W 123°07'0 0.0
2017-Aug-31 23:00N 49°19' W 123°07'0 0.0
2017-Aug-31 22:30N 49°19' W 123°07'0 0.0
2017-Aug-31 22:00N 49°19' W 123°07'0 0.0
2017-Aug-31 21:30N 49°19' W 123°07'0 0.0
2017-Aug-31 21:00N 49°19' W 123°07'0 0.0
2017-Aug-31 20:30N 49°19' W 123°07'0 0.0
2017-Aug-31 20:00N 49°19' W 123°07'0 0.0
2017-Aug-31 19:30N 49°19' W 123°07'0 0.0
2017-Aug-31 19:00N 49°19' W 123°07'0 0.0
2017-Aug-31 18:30N 49°19' W 123°07'0 0.0
2017-Aug-31 18:00N 49°19' W 123°07'0 0.0
2017-Aug-31 17:30N 49°19' W 123°07'0 0.0
2017-Aug-31 17:00N 49°19' W 123°07'0 0.0
2017-Aug-31 16:30N 49°19' W 123°07'0 0.0
2017-Aug-31 16:00N 49°19' W 123°07'0 0.0
2017-Aug-31 15:30N 49°19' W 123°07'0 0.0
2017-Aug-31 15:00N 49°19' W 123°07'0 0.0
2017-Aug-31 14:30N 49°19' W 123°07'0 0.0
2017-Aug-31 14:00N 49°19' W 123°07'0 0.0
2017-Aug-31 13:30N 49°19' W 123°07'0 0.0
2017-Aug-31 13:00N 49°19' W 123°07'0 0.0
2017-Aug-31 12:30N 49°19' W 123°07'0 0.0
2017-Aug-31 12:00N 49°19' W 123°07'0 0.0
2017-Aug-31 11:30N 49°19' W 123°07'0 0.0
2017-Aug-31 11:00N 49°19' W 123°07'0 0.0
2017-Aug-31 10:30N 49°19' W 123°07'0 0.0
2017-Aug-31 10:00N 49°19' W 123°07'0 0.0
2017-Aug-31 09:30N 49°19' W 123°07'0 0.0
2017-Aug-31 09:00N 49°19' W 123°07'0 0.0
2017-Aug-31 08:30N 49°19' W 123°07'0 0.0
2017-Aug-31 08:00N 49°19' W 123°07'0 0.0
2017-Aug-31 07:30N 49°19' W 123°07'0 0.0
2017-Aug-31 07:00N 49°19' W 123°07'0 0.0
2017-Aug-31 06:30N 49°19' W 123°07'0 0.0
2017-Aug-31 06:00N 49°19' W 123°07'0 0.0
2017-Aug-31 05:30N 49°19' W 123°07'0 0.0
2017-Aug-31 05:00N 49°19' W 123°07'0 0.0
2017-Aug-31 04:30N 49°19' W 123°07'0 0.0
2017-Aug-31 04:00N 49°19' W 123°07'0 0.0
2017-Aug-31 03:30N 49°19' W 123°07'0 0.0
2017-Aug-31 03:00N 49°19' W 123°07'0 0.0
2017-Aug-31 02:30N 49°19' W 123°07'0 0.0
2017-Aug-31 02:00N 49°19' W 123°07'0 0.0
2017-Aug-31 01:30N 49°19' W 123°07'0 0.0
2017-Aug-31 01:00N 49°19' W 123°07'0 0.0
2017-Aug-31 00:30N 49°19' W 123°07'0 0.0
2017-Aug-31 00:00N 49°19' W 123°07'0 0.0
2017-Aug-30 23:30N 49°19' W 123°07'0 0.0
2017-Aug-30 23:00N 49°19' W 123°07'0 0.0
2017-Aug-30 22:30N 49°19' W 123°07'0 0.0
2017-Aug-30 22:00N 49°19' W 123°07'2 3.5
2017-Aug-30 21:30N 49°18' W 123°05'0 0.7
2017-Aug-30 21:00N 49°18' W 123°04'0 0.1
2017-Aug-30 20:30N 49°18' W 123°04'0 0.0
2017-Aug-30 20:00N 49°18' W 123°04'0 0.0
2017-Aug-30 19:30N 49°18' W 123°04'0 0.0
2017-Aug-30 19:00N 49°18' W 123°04'0 0.0
2017-Aug-30 18:30N 49°18' W 123°04'0 0.1
2017-Aug-30 18:00N 49°18' W 123°04'0 0.2
2017-Aug-30 17:30N 49°18' W 123°04'0 0.1
2017-Aug-30 17:00N 49°18' W 123°04'0 0.1
2017-Aug-30 16:30N 49°18' W 123°04'0 0.0
2017-Aug-30 16:00N 49°18' W 123°04'0 0.0
2017-Aug-30 15:30N 49°18' W 123°04'0 0.0
2017-Aug-30 15:00N 49°18' W 123°04'0 0.0
2017-Aug-30 14:30N 49°18' W 123°04'0 0.0
2017-Aug-30 14:00N 49°18' W 123°04'0 0.0
2017-Aug-30 13:30N 49°18' W 123°04'0 0.0
2017-Aug-30 13:00N 49°18' W 123°04'0 0.0
2017-Aug-30 12:30N 49°18' W 123°04'0 0.0
2017-Aug-30 12:00N 49°18' W 123°04'0 0.0
2017-Aug-30 11:30N 49°18' W 123°04'0 0.0
2017-Aug-30 11:00N 49°18' W 123°04'0 0.0
2017-Aug-30 10:30N 49°18' W 123°04'0 0.0
2017-Aug-30 10:00N 49°18' W 123°04'0 0.1
2017-Aug-30 09:30N 49°18' W 123°04'0 0.0
2017-Aug-30 09:00N 49°18' W 123°04'0 0.0
2017-Aug-30 08:30N 49°18' W 123°04'0 0.0
2017-Aug-30 08:00N 49°18' W 123°04'0 0.0
2017-Aug-30 07:30N 49°18' W 123°04'0 0.2
2017-Aug-30 07:00N 49°18' W 123°04'0 0.3
2017-Aug-30 06:30N 49°18' W 123°04'0 0.1
2017-Aug-30 06:00N 49°18' W 123°04'0 0.0
2017-Aug-30 05:30N 49°18' W 123°04'0 0.1
2017-Aug-30 05:00N 49°18' W 123°04'0 0.0
2017-Aug-30 04:30N 49°18' W 123°04'0 0.0
2017-Aug-30 04:00N 49°18' W 123°04'0 0.1
2017-Aug-30 03:30N 49°18' W 123°04'0 0.1
2017-Aug-30 03:00N 49°18' W 123°04'0 0.1
2017-Aug-30 02:30N 49°18' W 123°04'0 0.1
2017-Aug-30 02:00N 49°18' W 123°04'0 0.0
2017-Aug-30 01:30N 49°18' W 123°04'0 0.1
2017-Aug-30 01:00N 49°18' W 123°04'0 0.0
2017-Aug-30 00:30N 49°18' W 123°04'0 0.0
2017-Aug-30 00:00N 49°18' W 123°04'0 0.1
2017-Aug-29 23:30N 49°18' W 123°04'0 0.2
2017-Aug-29 23:00N 49°18' W 123°04'0 0.2
2017-Aug-29 22:30N 49°18' W 123°04'3 5.1
2017-Aug-29 22:00N 49°19' W 123°08'611.5
2017-Aug-29 21:30N 49°18' W 123°17'713.3
2017-Aug-29 21:00N 49°11' W 123°20'713.4
2017-Aug-29 20:30N 49°05' W 123°21'713.4
2017-Aug-29 20:00N 48°60' W 123°14'613.0
2017-Aug-29 19:30N 48°55' W 123°07'712.9
2017-Aug-29 19:00N 48°50' W 123°01'612.4
2017-Aug-29 18:30N 48°44' W 123°05'713.8
2017-Aug-29 18:00N 48°42' W 123°15'611.9
2017-Aug-29 17:30N 48°36' W 123°13'5 9.7
2017-Aug-29 17:00N 48°31' W 123°11'511.0
2017-Aug-29 16:30N 48°26' W 123°10'714.7
2017-Aug-29 16:00N 48°22' W 123°19'3 6.8
2017-Aug-29 15:30N 48°21' W 123°24'2 4.0
2017-Aug-29 15:00N 48°19' W 123°25'3 6.7
2017-Aug-29 14:30N 48°16' W 123°26'5 9.3
2017-Aug-29 13:59N 48°13' W 123°33'4 8.8
2017-Aug-29 13:30N 48°14' W 123°39'4 8.5
2017-Aug-29 13:00N 48°14' W 123°45'4 8.5
2017-Aug-29 12:30N 48°14' W 123°52'5 9.3
2017-Aug-29 12:00N 48°15' W 123°59'5 9.7
2017-Aug-29 11:30N 48°17' W 124°05'5 9.1
2017-Aug-29 11:00N 48°19' W 124°11'4 8.3
2017-Aug-29 10:30N 48°20' W 124°17'4 7.7
2017-Aug-29 10:00N 48°22' W 124°22'4 7.5
2017-Aug-29 09:30N 48°24' W 124°27'4 7.7
2017-Aug-29 09:00N 48°25' W 124°33'4 7.8
2017-Aug-29 08:30N 48°27' W 124°38'4 7.6
2017-Aug-29 08:00N 48°28' W 124°43'4 7.6
2017-Aug-29 07:30N 48°29' W 124°49'4 8.1
2017-Aug-29 06:58N 48°29' W 124°56'4 7.9
2017-Aug-29 06:30N 48°29' W 125°01'5 9.0
2017-Aug-29 05:59N 48°28' W 125°08'5 9.5
2017-Aug-29 05:28N 48°25' W 125°14'5 9.4
2017-Aug-29 04:56N 48°22' W 125°20'5 9.2
2017-Aug-29 04:25N 48°19' W 125°26'4 9.5
2017-Aug-29 03:59N 48°16' W 125°30'5 9.8
2017-Aug-29 03:30N 48°14' W 125°36'5 9.6
2017-Aug-29 02:57N 48°10' W 125°42'6 9.5
2017-Aug-29 02:22N 48°07' W 125°49'5 9.4
2017-Aug-29 01:47N 48°03' W 125°55'3 9.4
2017-Aug-29 01:29N 48°02' W 125°59'19 9.0
2017-Aug-28 23:23N 47°50' W 126°21'4 9.0
2017-Aug-28 22:58N 47°48' W 126°25'8 9.1
2017-Aug-28 22:03N 47°43' W 126°35'4 9.0
2017-Aug-28 21:38N 47°41' W 126°40'1 9.3
2017-Aug-28 21:29N 47°40' W 126°41'4 9.1
2017-Aug-28 21:00N 47°37' W 126°46'5 9.0
2017-Aug-28 20:24N 47°34' W 126°53'8 9.0
2017-Aug-28 19:33N 47°29' W 127°02'1 9.0
2017-Aug-28 19:26N 47°28' W 127°03'17 8.7
2017-Aug-28 17:31N 47°18' W 127°22'1 8.6
2017-Aug-28 17:23N 47°17' W 127°24'3 8.6
2017-Aug-28 17:00N 47°15' W 127°27'4 8.5
2017-Aug-28 16:30N 47°13' W 127°32'4 8.4
2017-Aug-28 16:00N 47°10' W 127°37'4 8.4
2017-Aug-28 15:30N 47°08' W 127°42'4 8.4
2017-Aug-28 15:00N 47°05' W 127°47'4 8.4
2017-Aug-28 14:30N 47°03' W 127°52'4 8.3
2017-Aug-28 14:00N 47°00' W 127°57'4 8.1
2017-Aug-28 13:30N 46°58' W 128°02'4 8.2
2017-Aug-28 13:00N 46°55' W 128°06'4 8.1
2017-Aug-28 12:30N 46°52' W 128°11'4 8.1
2017-Aug-28 12:00N 46°50' W 128°16'4 8.3
2017-Aug-28 11:30N 46°48' W 128°20'6 8.4
2017-Aug-28 10:48N 46°44' W 128°27'8 8.2
2017-Aug-28 09:52N 46°39' W 128°36'47 7.3
2017-Aug-28 03:22N 45°56' W 129°04'79 8.0
2017-Aug-27 17:30N 44°38' W 129°07'157 8.1
2017-Aug-26 22:07N 42°01' W 129°05'3 7.9
2017-Aug-26 21:42N 41°58' W 129°05'5 7.9
2017-Aug-26 21:08N 41°53' W 129°04'  
Track history (hours):
 
Tides and Currents Weather Stations Pressure Air Temp Water Temp Dewpoint Dewpoint Depression Visibility Wind Speed Wind Dir Waves Ship Positions

Kaley

Last reported at 2017-Sep-04 08:15 UTC. Time now 2017-Sep-22 17:20 UTC.
Position N 47°36' W 131°16'.
Warning: this ship's position is 18 days out of date.

Length 199 m; draft 13.7 m.

Type: Cargo ship. MMSI: 538006289.

Date/timePositionNaut miles runAvg speedWind from/ knotsBaromVisibWave heightAir tempDewpointWater temp
2017-Sep-04 08:15N 47°36' W 131°16'3 8.7
2017-Sep-04 07:55N 47°37' W 131°11'4 8.6
2017-Sep-04 07:30N 47°38' W 131°06'4 8.6
2017-Sep-04 07:00N 47°38' W 131°00'4 8.6
2017-Sep-04 06:30N 47°39' W 130°54'4 8.7
2017-Sep-04 06:01N 47°40' W 130°48'4 8.9
2017-Sep-04 05:30N 47°41' W 130°41'4 8.9
2017-Sep-04 05:00N 47°42' W 130°35'4 8.7
2017-Sep-04 04:30N 47°43' W 130°28'4 8.6
2017-Sep-04 04:00N 47°44' W 130°22'5 8.5
2017-Sep-04 03:24N 47°45' W 130°15'4 8.5
2017-Sep-04 03:00N 47°46' W 130°10'6 8.7
2017-Sep-04 02:15N 47°47' W 130°00'2 8.7
2017-Sep-04 02:00N 47°48' W 129°57'4 8.6
2017-Sep-04 01:29N 47°49' W 129°51'4 8.6
2017-Sep-04 01:01N 47°50' W 129°45'4 8.5
2017-Sep-04 00:31N 47°51' W 129°39'4 8.5
2017-Sep-03 23:59N 47°52' W 129°32'4 8.5
2017-Sep-03 23:31N 47°52' W 129°26'4 8.6
2017-Sep-03 23:00N 47°53' W 129°20'4 8.4
2017-Sep-03 22:30N 47°54' W 129°14'4 8.3
2017-Sep-03 22:01N 47°55' W 129°08'4 8.2
2017-Sep-03 21:30N 47°56' W 129°02'4 8.4
2017-Sep-03 21:00N 47°57' W 128°56'4 8.5
2017-Sep-03 20:30N 47°58' W 128°49'4 8.6
2017-Sep-03 20:00N 47°59' W 128°43'4 8.5
2017-Sep-03 19:31N 47°60' W 128°37'4 8.6
2017-Sep-03 19:00N 48°01' W 128°31'4 8.4
2017-Sep-03 18:30N 48°02' W 128°25'4 8.5
2017-Sep-03 18:00N 48°02' W 128°18'5 8.3
2017-Sep-03 17:27N 48°04' W 128°12'4 8.4
2017-Sep-03 17:00N 48°04' W 128°06'7 8.4
2017-Sep-03 16:09N 48°06' W 127°56'1 8.4
2017-Sep-03 16:00N 48°06' W 127°54'4 8.5
2017-Sep-03 15:30N 48°07' W 127°48'4 8.3
2017-Sep-03 15:00N 48°08' W 127°42'75 8.3
2017-Sep-03 06:00N 48°24' W 125°52'4 8.2
2017-Sep-03 05:29N 48°25' W 125°46'4 8.1
2017-Sep-03 05:00N 48°26' W 125°40'4 8.4
2017-Sep-03 04:30N 48°27' W 125°34'4 8.0
2017-Sep-03 03:58N 48°28' W 125°28'7 8.4
2017-Sep-03 03:10N 48°29' W 125°18'2 8.6
2017-Sep-03 02:57N 48°30' W 125°15'5 8.8
2017-Sep-03 02:25N 48°31' W 125°08'4 8.9
2017-Sep-03 02:00N 48°31' W 125°03'5 9.1
2017-Sep-03 01:30N 48°31' W 124°56'4 9.0
2017-Sep-03 01:00N 48°31' W 124°49'5 9.7
2017-Sep-03 00:30N 48°30' W 124°42'510.1
2017-Sep-03 00:01N 48°28' W 124°35'5 9.7
2017-Sep-02 23:30N 48°26' W 124°28'5 9.5
2017-Sep-02 23:00N 48°25' W 124°21'5 9.2
2017-Sep-02 22:31N 48°23' W 124°15'5 9.1
2017-Sep-02 22:00N 48°21' W 124°09'5 9.2
2017-Sep-02 21:30N 48°19' W 124°02'5 9.0
2017-Sep-02 21:00N 48°18' W 123°56'4 9.1
2017-Sep-02 20:30N 48°17' W 123°49'4 8.7
2017-Sep-02 20:00N 48°17' W 123°43'4 8.7
2017-Sep-02 19:30N 48°16' W 123°36'4 7.7
2017-Sep-02 19:00N 48°16' W 123°30'4 8.0
2017-Sep-02 18:30N 48°19' W 123°27'4 8.8
2017-Sep-02 18:00N 48°23' W 123°23'4 8.7
2017-Sep-02 17:30N 48°23' W 123°17'4 8.2
2017-Sep-02 17:00N 48°26' W 123°12'510.7
2017-Sep-02 16:30N 48°31' W 123°13'612.2
2017-Sep-02 16:01N 48°37' W 123°14'611.6
2017-Sep-02 15:30N 48°43' W 123°13'713.4
2017-Sep-02 14:59N 48°46' W 123°03'5 9.5
2017-Sep-02 14:30N 48°51' W 123°03'713.2
2017-Sep-02 14:00N 48°55' W 123°10'713.5
2017-Sep-02 13:30N 48°60' W 123°18'612.3
2017-Sep-02 13:00N 49°05' W 123°23'612.6
2017-Sep-02 12:30N 49°11' W 123°22'612.5
2017-Sep-02 12:00N 49°17' W 123°19'510.8
2017-Sep-02 11:30N 49°19' W 123°11'3 5.6
2017-Sep-02 11:00N 49°19' W 123°07'0 0.0
2017-Sep-02 10:30N 49°19' W 123°07'0 0.0
2017-Sep-02 10:00N 49°19' W 123°07'0 0.0
2017-Sep-02 09:30N 49°19' W 123°07'0 0.0
2017-Sep-02 09:00N 49°19' W 123°07'0 0.0
2017-Sep-02 08:30N 49°19' W 123°07'0 0.0
2017-Sep-02 08:00N 49°19' W 123°07'0 0.0
2017-Sep-02 07:30N 49°19' W 123°07'0 0.0
2017-Sep-02 07:00N 49°19' W 123°07'0 0.0
2017-Sep-02 06:30N 49°19' W 123°07'0 0.0
2017-Sep-02 06:00N 49°19' W 123°07'0 0.0
2017-Sep-02 05:30N 49°19' W 123°07'0 0.0
2017-Sep-02 05:00N 49°19' W 123°07'0 0.0
2017-Sep-02 04:30N 49°19' W 123°07'0 0.0
2017-Sep-02 04:00N 49°19' W 123°07'0 0.0
2017-Sep-02 03:30N 49°19' W 123°07'0 0.0
2017-Sep-02 03:00N 49°19' W 123°07'0 0.0
2017-Sep-02 02:30N 49°19' W 123°07'0 0.0
2017-Sep-02 02:00N 49°19' W 123°07'0 0.0
2017-Sep-02 01:30N 49°19' W 123°07'0 0.0
2017-Sep-02 01:00N 49°19' W 123°07'0 0.0
2017-Sep-02 00:30N 49°19' W 123°07'0 0.0
2017-Sep-02 00:00N 49°19' W 123°07'0 0.0
2017-Sep-01 23:30N 49°19' W 123°07'0 0.0
2017-Sep-01 23:00N 49°19' W 123°07'0 0.0
2017-Sep-01 22:30N 49°19' W 123°07'0 0.0
2017-Sep-01 22:00N 49°19' W 123°07'0 0.0
2017-Sep-01 21:30N 49°19' W 123°07'0 0.0
2017-Sep-01 21:00N 49°19' W 123°07'0 0.0
2017-Sep-01 20:30N 49°19' W 123°07'0 0.0
2017-Sep-01 20:00N 49°19' W 123°07'0 0.0
2017-Sep-01 19:30N 49°19' W 123°07'0 0.0
2017-Sep-01 19:00N 49°19' W 123°07'0 0.0
2017-Sep-01 18:30N 49°19' W 123°07'0 0.0
2017-Sep-01 18:00N 49°19' W 123°07'0 0.0
2017-Sep-01 17:30N 49°19' W 123°07'0 0.0
2017-Sep-01 17:00N 49°19' W 123°07'0 0.0
2017-Sep-01 16:30N 49°19' W 123°07'0 0.0
2017-Sep-01 16:00N 49°19' W 123°07'0 0.0
2017-Sep-01 15:30N 49°19' W 123°07'0 0.0
2017-Sep-01 15:00N 49°19' W 123°07'0 0.0
2017-Sep-01 14:30N 49°19' W 123°07'0 0.0
2017-Sep-01 14:00N 49°19' W 123°07'0 0.0
2017-Sep-01 13:30N 49°19' W 123°07'0 0.0
2017-Sep-01 13:00N 49°19' W 123°07'0 0.0
2017-Sep-01 12:30N 49°19' W 123°07'0 0.0
2017-Sep-01 12:00N 49°19' W 123°07'0 0.0
2017-Sep-01 11:30N 49°19' W 123°07'0 0.0
2017-Sep-01 11:00N 49°19' W 123°07'0 0.0
2017-Sep-01 10:30N 49°19' W 123°07'0 0.0
2017-Sep-01 10:00N 49°19' W 123°07'0 0.0
2017-Sep-01 09:30N 49°19' W 123°07'0 0.0
2017-Sep-01 09:00N 49°19' W 123°07'0 0.0
2017-Sep-01 08:30N 49°19' W 123°07'0 0.0
2017-Sep-01 08:00N 49°19' W 123°07'0 0.0
2017-Sep-01 07:30N 49°19' W 123°07'0 0.0
2017-Sep-01 07:00N 49°19' W 123°07'0 0.0
2017-Sep-01 06:30N 49°19' W 123°07'0 0.0
2017-Sep-01 06:00N 49°19' W 123°07'0 0.0
2017-Sep-01 05:30N 49°19' W 123°07'0 0.0
2017-Sep-01 05:00N 49°19' W 123°07'0 0.0
2017-Sep-01 04:30N 49°19' W 123°07'0 0.0
2017-Sep-01 04:00N 49°19' W 123°07'0 0.0
2017-Sep-01 03:30N 49°19' W 123°07'0 0.0
2017-Sep-01 03:00N 49°19' W 123°07'0 0.0
2017-Sep-01 02:30N 49°19' W 123°07'0 0.0
2017-Sep-01 02:00N 49°19' W 123°07'0 0.0
2017-Sep-01 01:30N 49°19' W 123°07'0 0.0
2017-Sep-01 01:00N 49°19' W 123°07'0 0.0
2017-Sep-01 00:30N 49°19' W 123°07'0 0.0
2017-Sep-01 00:00N 49°19' W 123°07'0 0.0
2017-Aug-31 23:30N 49°19' W 123°07'0 0.0
2017-Aug-31 23:00N 49°19' W 123°07'0 0.0
2017-Aug-31 22:30N 49°19' W 123°07'0 0.0
2017-Aug-31 22:00N 49°19' W 123°07'0 0.0
2017-Aug-31 21:30N 49°19' W 123°07'0 0.0
2017-Aug-31 21:00N 49°19' W 123°07'0 0.0
2017-Aug-31 20:30N 49°19' W 123°07'0 0.0
2017-Aug-31 20:00N 49°19' W 123°07'0 0.0
2017-Aug-31 19:30N 49°19' W 123°07'0 0.0
2017-Aug-31 19:00N 49°19' W 123°07'0 0.0
2017-Aug-31 18:30N 49°19' W 123°07'0 0.0
2017-Aug-31 18:00N 49°19' W 123°07'0 0.0
2017-Aug-31 17:30N 49°19' W 123°07'0 0.0
2017-Aug-31 17:00N 49°19' W 123°07'0 0.0
2017-Aug-31 16:30N 49°19' W 123°07'0 0.0
2017-Aug-31 16:00N 49°19' W 123°07'0 0.0
2017-Aug-31 15:30N 49°19' W 123°07'0 0.0
2017-Aug-31 15:00N 49°19' W 123°07'0 0.0
2017-Aug-31 14:30N 49°19' W 123°07'0 0.0
2017-Aug-31 14:00N 49°19' W 123°07'0 0.0
2017-Aug-31 13:30N 49°19' W 123°07'0 0.0
2017-Aug-31 13:00N 49°19' W 123°07'0 0.0
2017-Aug-31 12:30N 49°19' W 123°07'0 0.0
2017-Aug-31 12:00N 49°19' W 123°07'0 0.0
2017-Aug-31 11:30N 49°19' W 123°07'0 0.0
2017-Aug-31 11:00N 49°19' W 123°07'0 0.0
2017-Aug-31 10:30N 49°19' W 123°07'0 0.0
2017-Aug-31 10:00N 49°19' W 123°07'0 0.0
2017-Aug-31 09:30N 49°19' W 123°07'0 0.0
2017-Aug-31 09:00N 49°19' W 123°07'0 0.0
2017-Aug-31 08:30N 49°19' W 123°07'0 0.0
2017-Aug-31 08:00N 49°19' W 123°07'0 0.0
2017-Aug-31 07:30N 49°19' W 123°07'0 0.0
2017-Aug-31 07:00N 49°19' W 123°07'0 0.0
2017-Aug-31 06:30N 49°19' W 123°07'0 0.0
2017-Aug-31 06:00N 49°19' W 123°07'0 0.0
2017-Aug-31 05:30N 49°19' W 123°07'0 0.0
2017-Aug-31 05:00N 49°19' W 123°07'0 0.0
2017-Aug-31 04:30N 49°19' W 123°07'0 0.0
2017-Aug-31 04:00N 49°19' W 123°07'0 0.0
2017-Aug-31 03:30N 49°19' W 123°07'0 0.0
2017-Aug-31 03:00N 49°19' W 123°07'0 0.0
2017-Aug-31 02:30N 49°19' W 123°07'0 0.0
2017-Aug-31 02:00N 49°19' W 123°07'0 0.0
2017-Aug-31 01:30N 49°19' W 123°07'0 0.0
2017-Aug-31 01:00N 49°19' W 123°07'0 0.0
2017-Aug-31 00:30N 49°19' W 123°07'0 0.0
2017-Aug-31 00:00N 49°19' W 123°07'0 0.0
2017-Aug-30 23:30N 49°19' W 123°07'0 0.0
2017-Aug-30 23:00N 49°19' W 123°07'0 0.0
2017-Aug-30 22:30N 49°19' W 123°07'0 0.0
2017-Aug-30 22:00N 49°19' W 123°07'2 3.5
2017-Aug-30 21:30N 49°18' W 123°05'0 0.7
2017-Aug-30 21:00N 49°18' W 123°04'0 0.1
2017-Aug-30 20:30N 49°18' W 123°04'0 0.0
2017-Aug-30 20:00N 49°18' W 123°04'0 0.0
2017-Aug-30 19:30N 49°18' W 123°04'0 0.0
2017-Aug-30 19:00N 49°18' W 123°04'0 0.0
2017-Aug-30 18:30N 49°18' W 123°04'0 0.1
2017-Aug-30 18:00N 49°18' W 123°04'0 0.2
2017-Aug-30 17:30N 49°18' W 123°04'0 0.1
2017-Aug-30 17:00N 49°18' W 123°04'0 0.1
2017-Aug-30 16:30N 49°18' W 123°04'0 0.0
2017-Aug-30 16:00N 49°18' W 123°04'0 0.0
2017-Aug-30 15:30N 49°18' W 123°04'0 0.0
2017-Aug-30 15:00N 49°18' W 123°04'0 0.0
2017-Aug-30 14:30N 49°18' W 123°04'0 0.0
2017-Aug-30 14:00N 49°18' W 123°04'0 0.0
2017-Aug-30 13:30N 49°18' W 123°04'0 0.0
2017-Aug-30 13:00N 49°18' W 123°04'0 0.0
2017-Aug-30 12:30N 49°18' W 123°04'0 0.0
2017-Aug-30 12:00N 49°18' W 123°04'0 0.0
2017-Aug-30 11:30N 49°18' W 123°04'0 0.0
2017-Aug-30 11:00N 49°18' W 123°04'0 0.0
2017-Aug-30 10:30N 49°18' W 123°04'0 0.0
2017-Aug-30 10:00N 49°18' W 123°04'0 0.1
2017-Aug-30 09:30N 49°18' W 123°04'0 0.0
2017-Aug-30 09:00N 49°18' W 123°04'0 0.0
2017-Aug-30 08:30N 49°18' W 123°04'0 0.0
2017-Aug-30 08:00N 49°18' W 123°04'0 0.0
2017-Aug-30 07:30N 49°18' W 123°04'0 0.2
2017-Aug-30 07:00N 49°18' W 123°04'0 0.3
2017-Aug-30 06:30N 49°18' W 123°04'0 0.1
2017-Aug-30 06:00N 49°18' W 123°04'0 0.0
2017-Aug-30 05:30N 49°18' W 123°04'0 0.1
2017-Aug-30 05:00N 49°18' W 123°04'0 0.0
2017-Aug-30 04:30N 49°18' W 123°04'0 0.0
2017-Aug-30 04:00N 49°18' W 123°04'0 0.1
2017-Aug-30 03:30N 49°18' W 123°04'0 0.1
2017-Aug-30 03:00N 49°18' W 123°04'0 0.1
2017-Aug-30 02:30N 49°18' W 123°04'0 0.1
2017-Aug-30 02:00N 49°18' W 123°04'0 0.0
2017-Aug-30 01:30N 49°18' W 123°04'0 0.1
2017-Aug-30 01:00N 49°18' W 123°04'0 0.0
2017-Aug-30 00:30N 49°18' W 123°04'0 0.0
2017-Aug-30 00:00N 49°18' W 123°04'0 0.1
2017-Aug-29 23:30N 49°18' W 123°04'0 0.2
2017-Aug-29 23:00N 49°18' W 123°04'0 0.2
2017-Aug-29 22:30N 49°18' W 123°04'3 5.1
2017-Aug-29 22:00N 49°19' W 123°08'611.5
2017-Aug-29 21:30N 49°18' W 123°17'713.3
2017-Aug-29 21:00N 49°11' W 123°20'713.4
2017-Aug-29 20:30N 49°05' W 123°21'713.4
2017-Aug-29 20:00N 48°60' W 123°14'613.0
2017-Aug-29 19:30N 48°55' W 123°07'712.9
2017-Aug-29 19:00N 48°50' W 123°01'612.4
2017-Aug-29 18:30N 48°44' W 123°05'713.8
2017-Aug-29 18:00N 48°42' W 123°15'611.9
2017-Aug-29 17:30N 48°36' W 123°13'5 9.7
2017-Aug-29 17:00N 48°31' W 123°11'511.0
2017-Aug-29 16:30N 48°26' W 123°10'714.7
2017-Aug-29 16:00N 48°22' W 123°19'3 6.8
2017-Aug-29 15:30N 48°21' W 123°24'2 4.0
2017-Aug-29 15:00N 48°19' W 123°25'3 6.7
2017-Aug-29 14:30N 48°16' W 123°26'5 9.3
2017-Aug-29 13:59N 48°13' W 123°33'4 8.8
2017-Aug-29 13:30N 48°14' W 123°39'4 8.5
2017-Aug-29 13:00N 48°14' W 123°45'4 8.5
2017-Aug-29 12:30N 48°14' W 123°52'5 9.3
2017-Aug-29 12:00N 48°15' W 123°59'5 9.7
2017-Aug-29 11:30N 48°17' W 124°05'5 9.1
2017-Aug-29 11:00N 48°19' W 124°11'4 8.3
2017-Aug-29 10:30N 48°20' W 124°17'4 7.7
2017-Aug-29 10:00N 48°22' W 124°22'4 7.5
2017-Aug-29 09:30N 48°24' W 124°27'4 7.7
2017-Aug-29 09:00N 48°25' W 124°33'4 7.8
2017-Aug-29 08:30N 48°27' W 124°38'4 7.6
2017-Aug-29 08:00N 48°28' W 124°43'4 7.6
2017-Aug-29 07:30N 48°29' W 124°49'4 8.1
2017-Aug-29 06:58N 48°29' W 124°56'4 7.9
2017-Aug-29 06:30N 48°29' W 125°01'5 9.0
2017-Aug-29 05:59N 48°28' W 125°08'5 9.5
2017-Aug-29 05:28N 48°25' W 125°14'5 9.4
2017-Aug-29 04:56N 48°22' W 125°20'5 9.2
2017-Aug-29 04:25N 48°19' W 125°26'4 9.5
2017-Aug-29 03:59N 48°16' W 125°30'5 9.8
2017-Aug-29 03:30N 48°14' W 125°36'5 9.6
2017-Aug-29 02:57N 48°10' W 125°42'6 9.5
2017-Aug-29 02:22N 48°07' W 125°49'5 9.4
2017-Aug-29 01:47N 48°03' W 125°55'3 9.4
2017-Aug-29 01:29N 48°02' W 125°59'19 9.0
2017-Aug-28 23:23N 47°50' W 126°21'4 9.0
2017-Aug-28 22:58N 47°48' W 126°25'8 9.1
2017-Aug-28 22:03N 47°43' W 126°35'4 9.0
2017-Aug-28 21:38N 47°41' W 126°40'1 9.3
2017-Aug-28 21:29N 47°40' W 126°41'4 9.1
2017-Aug-28 21:00N 47°37' W 126°46'5 9.0
2017-Aug-28 20:24N 47°34' W 126°53'8 9.0
2017-Aug-28 19:33N 47°29' W 127°02'1 9.0
2017-Aug-28 19:26N 47°28' W 127°03'17 8.7
2017-Aug-28 17:31N 47°18' W 127°22'1 8.6
2017-Aug-28 17:23N 47°17' W 127°24'3 8.6
2017-Aug-28 17:00N 47°15' W 127°27'4 8.5
2017-Aug-28 16:30N 47°13' W 127°32'4 8.4
2017-Aug-28 16:00N 47°10' W 127°37'4 8.4
2017-Aug-28 15:30N 47°08' W 127°42'4 8.4
2017-Aug-28 15:00N 47°05' W 127°47'4 8.4
2017-Aug-28 14:30N 47°03' W 127°52'4 8.3
2017-Aug-28 14:00N 47°00' W 127°57'4 8.1
2017-Aug-28 13:30N 46°58' W 128°02'4 8.2
2017-Aug-28 13:00N 46°55' W 128°06'4 8.1
2017-Aug-28 12:30N 46°52' W 128°11'4 8.1
2017-Aug-28 12:00N 46°50' W 128°16'4 8.3
2017-Aug-28 11:30N 46°48' W 128°20'6 8.4
2017-Aug-28 10:48N 46°44' W 128°27'8 8.2
2017-Aug-28 09:52N 46°39' W 128°36'47 7.3
2017-Aug-28 03:22N 45°56' W 129°04'79 8.0
2017-Aug-27 17:30N 44°38' W 129°07'157 8.1
2017-Aug-26 22:07N 42°01' W 129°05'3 7.9
2017-Aug-26 21:42N 41°58' W 129°05'5 7.9
2017-Aug-26 21:08N 41°53' W 129°04'  

Dump ship's entire track history